Time;durP1;ratioP1;P1;durP2;ratioP2;P2;SDS_P1;SDS_P2;PMS_P1;PMS_P2;Temp;Humidity;BMP_temperature;BMP_pressure;BME280_temperature;BME280_humidity;BME280_pressure;Samples;Min_cycle;Max_cycle;Signal;HPM_P1;HPM_P2
2020/12/15 00:00:05;;;;;;;3.57;2.93;;;3.90;98.50;;;;;;4961483;28;20182;-76
2020/12/15 00:02:30;;;;;;;3.10;2.77;;;3.90;98.40;;;;;;4952676;28;20198;-76
2020/12/15 00:04:56;;;;;;;2.67;2.33;;;3.90;98.50;;;;;;4952937;28;20554;-75
2020/12/15 00:07:22;;;;;;;3.13;2.77;;;3.90;98.40;;;;;;4970012;28;20197;-76
2020/12/15 00:09:48;;;;;;;3.73;2.40;;;3.90;98.30;;;;;;4970114;28;20269;-76
2020/12/15 00:12:13;;;;;;;2.90;2.63;;;3.90;98.30;;;;;;4970429;28;20535;-75
2020/12/15 00:14:40;;;;;;;2.87;2.70;;;3.90;98.20;;;;;;4952722;28;20245;-75
2020/12/15 00:17:05;;;;;;;3.33;3.03;;;3.90;98.20;;;;;;4970501;28;20190;-75
2020/12/15 00:19:31;;;;;;;3.00;2.77;;;3.90;98.20;;;;;;4951542;28;20178;-75
2020/12/15 00:21:57;;;;;;;4.77;2.40;;;3.90;98.30;;;;;;4970060;28;20245;-75
2020/12/15 00:24:22;;;;;;;2.60;2.40;;;3.90;98.30;;;;;;4961148;28;20187;-75
2020/12/15 00:26:48;;;;;;;2.73;2.43;;;4.00;98.20;;;;;;4967328;28;20187;-76
2020/12/15 00:29:16;;;;;;;3.40;2.47;;;4.00;98.10;;;;;;4969789;28;20277;-75
2020/12/15 00:31:42;;;;;;;2.40;2.23;;;4.00;98.10;;;;;;4969733;28;20194;-75
2020/12/15 00:34:08;;;;;;;2.67;2.43;;;4.00;98.20;;;;;;4970056;28;20190;-75
2020/12/15 00:36:34;;;;;;;2.83;2.57;;;4.00;98.10;;;;;;4941557;28;20568;-76
2020/12/15 00:39:00;;;;;;;5.10;3.40;;;4.00;98.10;;;;;;4968924;28;20190;-75
2020/12/15 00:41:27;;;;;;;2.57;2.37;;;4.00;98.10;;;;;;4950645;29;20680;-76
2020/12/15 00:43:53;;;;;;;4.33;3.13;;;4.00;98.00;;;;;;4950978;29;20220;-76
2020/12/15 00:46:19;;;;;;;2.57;2.30;;;4.10;98.10;;;;;;4966149;28;20671;-75
2020/12/15 00:48:45;;;;;;;3.07;2.73;;;4.00;98.00;;;;;;4952382;28;20186;-76
2020/12/15 00:51:15;;;;;;;4.20;2.13;;;4.10;98.00;;;;;;4963479;28;20281;-76
2020/12/15 00:53:41;;;;;;;3.87;2.63;;;4.10;97.90;;;;;;4969166;28;20213;-77
2020/12/15 00:56:07;;;;;;;3.33;2.97;;;4.10;97.90;;;;;;4968788;28;20194;-76
2020/12/15 00:58:35;;;;;;;2.07;1.97;;;4.00;98.00;;;;;;4951937;28;20194;-76
2020/12/15 01:01:01;;;;;;;2.83;2.53;;;4.00;97.90;;;;;;4968108;28;20261;-76
2020/12/15 01:03:27;;;;;;;4.07;2.67;;;3.90;97.70;;;;;;4947407;28;20202;-76
2020/12/15 01:05:52;;;;;;;2.10;2.00;;;3.90;97.80;;;;;;4951523;28;20340;-76
2020/12/15 01:08:18;;;;;;;4.97;2.00;;;4.00;97.90;;;;;;4968756;28;20218;-76
2020/12/15 01:10:44;;;;;;;7.53;2.03;;;3.90;97.80;;;;;;4968652;28;20178;-76
2020/12/15 01:13:09;;;;;;;3.13;2.73;;;3.90;97.80;;;;;;4961556;28;20211;-76
2020/12/15 01:15:35;;;;;;;3.17;2.87;;;3.90;97.80;;;;;;4961709;28;20190;-77
2020/12/15 01:18:01;;;;;;;2.63;2.50;;;3.90;97.90;;;;;;4946507;29;20191;-76
2020/12/15 01:20:27;;;;;;;3.30;3.10;;;3.90;97.90;;;;;;4966847;28;20306;-77
2020/12/15 01:22:52;;;;;;;3.17;2.90;;;3.90;98.00;;;;;;4969246;28;21105;-76
2020/12/15 01:25:18;;;;;;;3.43;2.93;;;3.80;98.00;;;;;;4967085;28;21019;-77
2020/12/15 01:27:43;;;;;;;6.87;4.00;;;3.80;98.10;;;;;;4968312;28;21697;-76
2020/12/15 01:30:09;;;;;;;4.77;3.83;;;3.80;98.20;;;;;;4968618;28;20232;-77
2020/12/15 01:32:35;;;;;;;5.87;3.87;;;3.80;98.20;;;;;;4969230;28;20241;-77
2020/12/15 01:35:00;;;;;;;9.80;4.03;;;3.70;98.10;;;;;;4963858;28;21081;-76
2020/12/15 01:37:26;;;;;;;4.00;3.70;;;3.70;98.20;;;;;;4969600;28;20693;-77
2020/12/15 01:39:52;;;;;;;3.87;3.57;;;3.70;98.20;;;;;;4961346;28;20812;-76
2020/12/15 01:42:17;;;;;;;4.20;3.80;;;3.70;98.10;;;;;;4969501;28;20198;-76
2020/12/15 01:44:43;;;;;;;3.90;2.90;;;3.70;98.10;;;;;;4969369;28;20261;-76
2020/12/15 01:47:10;;;;;;;5.30;4.30;;;3.70;98.10;;;;;;4951018;28;20189;-77
2020/12/15 01:49:35;;;;;;;6.27;4.07;;;3.70;98.00;;;;;;4968286;28;20185;-76
2020/12/15 01:52:02;;;;;;;4.80;3.20;;;3.70;98.10;;;;;;4951259;28;20190;-76
2020/12/15 01:54:28;;;;;;;8.97;3.80;;;3.70;98.20;;;;;;4969179;28;20183;-76
2020/12/15 01:56:55;;;;;;;7.43;4.27;;;3.70;98.20;;;;;;4969360;28;20224;-76
2020/12/15 01:59:22;;;;;;;6.60;3.67;;;3.70;98.20;;;;;;4968894;28;20198;-76
2020/12/15 02:01:48;;;;;;;5.37;4.13;;;3.60;98.20;;;;;;4968756;28;20196;-76
2020/12/15 02:04:14;;;;;;;5.10;3.80;;;3.60;98.20;;;;;;4949572;28;20586;-77
2020/12/15 02:06:46;;;;;;;4.53;4.07;;;3.50;98.40;;;;;;4967730;28;20643;-76
2020/12/15 02:09:12;;;;;;;4.87;3.30;;;3.50;98.40;;;;;;4951025;28;20189;-76
2020/12/15 02:11:37;;;;;;;3.17;2.67;;;3.50;98.50;;;;;;4967708;28;20729;-76
2020/12/15 02:14:03;;;;;;;3.77;3.37;;;3.40;98.50;;;;;;4967091;28;20190;-76
2020/12/15 02:16:30;;;;;;;3.43;3.23;;;3.40;98.50;;;;;;4966920;28;20673;-76
2020/12/15 02:18:56;;;;;;;3.43;3.13;;;3.40;98.50;;;;;;4967279;28;20186;-76
2020/12/15 02:21:22;;;;;;;3.27;2.97;;;3.40;98.50;;;;;;4950650;28;20241;-76
2020/12/15 02:23:47;;;;;;;4.27;2.67;;;3.40;98.50;;;;;;4937682;28;20621;-76
2020/12/15 02:26:13;;;;;;;4.77;3.13;;;3.40;98.50;;;;;;4968119;28;20876;-76
2020/12/15 02:28:39;;;;;;;2.33;2.23;;;3.40;98.50;;;;;;4939911;29;20219;-76
2020/12/15 02:31:05;;;;;;;2.67;2.43;;;3.40;98.50;;;;;;4967480;28;20191;-76
2020/12/15 02:33:30;;;;;;;3.33;2.73;;;3.40;98.50;;;;;;4967780;28;20663;-76
2020/12/15 02:35:57;;;;;;;3.57;2.73;;;3.40;98.50;;;;;;4968349;28;20183;-76
2020/12/15 02:38:23;;;;;;;2.73;2.53;;;3.40;98.50;;;;;;4968077;28;20186;-76
2020/12/15 02:40:49;;;;;;;2.57;2.17;;;3.50;98.50;;;;;;4950570;28;20197;-76
2020/12/15 02:43:15;;;;;;;2.57;2.37;;;3.50;98.50;;;;;;4966419;28;20733;-76
2020/12/15 02:45:40;;;;;;;2.63;2.20;;;3.50;98.50;;;;;;4967757;28;20234;-76
2020/12/15 02:48:24;;;;;;;2.97;2.63;;;3.40;98.50;;;;;;4967389;28;20197;-76
2020/12/15 02:50:50;;;;;;;3.03;2.73;;;3.40;98.50;;;;;;4960191;28;20263;-76
2020/12/15 02:53:16;;;;;;;3.13;2.17;;;3.50;98.50;;;;;;4963614;28;20194;-76
2020/12/15 02:55:41;;;;;;;3.07;2.73;;;3.50;98.50;;;;;;4947379;29;20282;-76
2020/12/15 02:58:07;;;;;;;6.70;2.77;;;3.50;98.50;;;;;;4962522;28;20221;-76
2020/12/15 03:00:33;;;;;;;2.80;2.60;;;3.50;98.50;;;;;;4970377;28;20213;-76
2020/12/15 03:02:58;;;;;;;2.43;2.23;;;3.50;98.50;;;;;;4968093;28;20329;-76
2020/12/15 03:05:24;;;;;;;3.13;2.43;;;3.50;98.50;;;;;;4971974;28;20182;-76
2020/12/15 03:07:50;;;;;;;5.07;2.53;;;3.50;98.50;;;;;;4970628;28;20213;-76
2020/12/15 03:10:15;;;;;;;2.47;2.23;;;3.50;98.50;;;;;;4967431;28;20194;-76
2020/12/15 03:12:41;;;;;;;2.33;2.13;;;3.50;98.50;;;;;;4972336;28;20194;-76
2020/12/15 03:15:07;;;;;;;2.97;1.93;;;3.40;98.50;;;;;;4950078;28;20230;-77
2020/12/15 03:17:33;;;;;;;2.50;2.30;;;3.40;98.50;;;;;;4970310;28;20544;-76
2020/12/15 03:19:58;;;;;;;3.00;2.20;;;3.50;98.50;;;;;;4970661;28;20571;-76
2020/12/15 03:22:24;;;;;;;4.63;1.60;;;3.50;98.50;;;;;;4954805;28;20773;-76
2020/12/15 03:24:50;;;;;;;2.27;2.17;;;3.50;98.50;;;;;;4970563;28;20205;-76
2020/12/15 03:27:15;;;;;;;3.60;2.90;;;3.50;98.50;;;;;;4962183;28;20190;-76
2020/12/15 03:29:41;;;;;;;2.90;2.70;;;3.50;98.50;;;;;;4971338;28;20198;-76
2020/12/15 03:32:07;;;;;;;3.57;2.73;;;3.50;98.50;;;;;;4969686;28;20248;-76
2020/12/15 03:34:32;;;;;;;2.80;2.53;;;3.50;98.50;;;;;;4970895;28;20189;-76
2020/12/15 03:36:58;;;;;;;3.73;2.30;;;3.50;98.50;;;;;;4970443;28;20218;-76
2020/12/15 03:39:26;;;;;;;2.13;2.03;;;3.50;98.50;;;;;;4952466;28;20205;-76
2020/12/15 03:41:54;;;;;;;5.63;2.67;;;3.50;98.50;;;;;;4969672;28;20198;-75
2020/12/15 03:44:23;;;;;;;2.47;2.30;;;3.50;98.50;;;;;;4964484;28;20182;-76
2020/12/15 03:46:49;;;;;;;2.97;2.30;;;3.50;98.50;;;;;;4947321;28;20195;-75
2020/12/15 03:49:15;;;;;;;2.00;1.77;;;3.50;98.50;;;;;;4954032;28;20191;-75
2020/12/15 03:51:41;;;;;;;2.67;2.20;;;3.50;98.50;;;;;;4969356;28;20278;-75
2020/12/15 03:54:07;;;;;;;2.23;2.10;;;3.50;98.50;;;;;;4969520;28;20266;-76
2020/12/15 03:56:32;;;;;;;3.87;2.93;;;3.50;98.50;;;;;;4969412;28;20646;-76
2020/12/15 03:58:58;;;;;;;1.70;1.60;;;3.50;98.50;;;;;;4969424;28;20277;-76
2020/12/15 04:01:24;;;;;;;3.20;2.53;;;3.60;98.50;;;;;;4967000;28;20194;-76
2020/12/15 04:03:49;;;;;;;3.80;2.63;;;3.60;98.50;;;;;;4968974;28;20288;-75
2020/12/15 04:06:15;;;;;;;3.57;2.27;;;3.60;98.50;;;;;;4963261;28;20714;-75
2020/12/15 04:08:41;;;;;;;2.10;1.93;;;3.60;98.50;;;;;;4961776;28;20190;-75
2020/12/15 04:11:07;;;;;;;2.43;1.97;;;3.60;98.50;;;;;;4948291;28;20222;-75
2020/12/15 04:13:33;;;;;;;1.93;1.83;;;3.60;98.50;;;;;;4950895;29;20183;-76
2020/12/15 04:15:59;;;;;;;1.80;1.70;;;3.60;98.50;;;;;;4960479;28;20873;-75
2020/12/15 04:18:24;;;;;;;2.50;2.30;;;3.60;98.50;;;;;;4952680;28;20190;-75
2020/12/15 04:20:51;;;;;;;4.23;2.47;;;3.60;98.50;;;;;;4949241;29;20290;-75
2020/12/15 04:23:18;;;;;;;2.43;2.33;;;3.60;98.50;;;;;;4951612;28;20213;-75
2020/12/15 04:25:55;;;;;;;2.33;1.97;;;3.60;98.50;;;;;;4955680;28;20269;-75
2020/12/15 04:28:21;;;;;;;3.00;2.13;;;3.60;98.50;;;;;;4958086;28;20234;-75
2020/12/15 04:30:47;;;;;;;2.10;2.00;;;3.70;98.50;;;;;;4967910;28;20182;-75
2020/12/15 04:33:13;;;;;;;2.47;2.27;;;3.70;98.50;;;;;;4968287;28;20186;-76
2020/12/15 04:35:39;;;;;;;3.90;2.87;;;3.70;98.50;;;;;;4969489;28;20796;-75
2020/12/15 04:38:05;;;;;;;1.97;1.87;;;3.70;98.50;;;;;;4952085;28;20188;-75
2020/12/15 04:40:34;;;;;;;3.43;2.47;;;3.70;98.50;;;;;;4970214;28;20190;-77
2020/12/15 04:43:01;;;;;;;2.20;2.00;;;3.70;98.50;;;;;;4952506;28;20214;-77
2020/12/15 04:45:28;;;;;;;2.07;1.97;;;3.70;98.50;;;;;;4968121;28;20186;-76
2020/12/15 04:48:03;;;;;;;1.93;1.83;;;3.70;98.50;;;;;;4951458;28;20249;-76
2020/12/15 04:50:32;;;;;;;2.43;2.23;;;3.70;98.50;;;;;;4953270;28;20233;-76
2020/12/15 04:53:11;;;;;;;1.90;1.80;;;3.70;98.50;;;;;;4969635;28;20190;-76
2020/12/15 04:55:38;;;;;;;3.33;2.00;;;3.70;98.50;;;;;;4969818;28;20696;-76
2020/12/15 04:58:04;;;;;;;1.47;1.37;;;3.70;98.50;;;;;;4952158;28;20879;-76
2020/12/15 05:00:31;;;;;;;3.03;2.07;;;3.70;98.50;;;;;;4967631;28;20277;-76
2020/12/15 05:02:58;;;;;;;2.60;1.80;;;3.80;98.50;;;;;;4968995;28;20213;-76
2020/12/15 05:05:25;;;;;;;2.30;2.10;;;3.80;98.50;;;;;;4950427;28;20191;-77
2020/12/15 05:07:51;;;;;;;1.83;1.73;;;3.80;98.30;;;;;;4951578;28;20193;-76
2020/12/15 05:10:18;;;;;;;2.33;2.10;;;3.80;98.10;;;;;;4953292;28;20902;-76
2020/12/15 05:12:45;;;;;;;2.53;1.97;;;3.80;98.00;;;;;;4968469;28;20178;-77
2020/12/15 05:15:16;;;;;;;2.67;2.07;;;3.80;97.80;;;;;;4951364;28;20197;-77
2020/12/15 05:17:42;;;;;;;2.70;2.50;;;3.80;97.90;;;;;;4969841;28;20167;-77
2020/12/15 05:20:09;;;;;;;1.67;1.50;;;3.90;98.00;;;;;;4966952;28;20193;-76
2020/12/15 05:22:45;;;;;;;1.50;1.50;;;3.90;97.90;;;;;;4969156;28;20902;-76
2020/12/15 05:25:22;;;;;;;2.00;1.90;;;3.90;97.70;;;;;;4967411;28;20277;-76
2020/12/15 05:27:48;;;;;;;2.23;2.10;;;3.90;97.80;;;;;;4959148;28;20911;-77
2020/12/15 05:30:14;;;;;;;3.30;2.43;;;4.00;97.70;;;;;;4933372;29;20186;-77
2020/12/15 05:32:56;;;;;;;2.37;2.17;;;4.00;97.60;;;;;;4950171;29;20570;-77
2020/12/15 05:35:28;;;;;;;1.83;1.73;;;3.90;97.50;;;;;;4968802;28;20269;-77
2020/12/15 05:37:58;;;;;;;1.47;1.47;;;4.00;97.50;;;;;;4952106;28;20214;-77
2020/12/15 05:40:25;;;;;;;2.60;2.40;;;4.00;97.50;;;;;;4969238;28;20289;-77
2020/12/15 05:43:04;;;;;;;1.87;1.67;;;4.00;97.40;;;;;;4964223;28;20221;-77
2020/12/15 05:45:31;;;;;;;2.03;1.93;;;4.00;97.30;;;;;;4962992;28;20185;-77
2020/12/15 05:48:09;;;;;;;1.50;1.40;;;4.10;97.20;;;;;;4969140;28;20670;-77
2020/12/15 05:50:38;;;;;;;1.73;1.60;;;4.10;97.00;;;;;;4968525;28;20189;-77
2020/12/15 05:53:09;;;;;;;4.63;2.10;;;4.10;97.00;;;;;;4968775;28;20932;-76
2020/12/15 05:55:34;;;;;;;2.10;2.00;;;4.10;96.90;;;;;;4951698;28;20703;-76
2020/12/15 05:58:01;;;;;;;1.77;1.67;;;4.20;97.00;;;;;;4950633;28;20265;-77
2020/12/15 06:00:29;;;;;;;1.70;1.57;;;4.10;96.70;;;;;;4941413;28;20194;-76
2020/12/15 06:03:02;;;;;;;2.30;2.10;;;4.20;96.70;;;;;;4939948;29;20218;-77
2020/12/15 06:05:30;;;;;;;1.77;1.67;;;4.20;96.60;;;;;;4960192;28;20193;-77
2020/12/15 06:07:57;;;;;;;2.50;1.63;;;4.20;96.40;;;;;;4957570;28;20225;-76
2020/12/15 06:10:24;;;;;;;1.67;1.57;;;4.20;96.40;;;;;;4968817;28;20557;-76
2020/12/15 06:12:51;;;;;;;2.00;1.63;;;4.20;96.50;;;;;;4964757;28;20273;-77
2020/12/15 06:15:18;;;;;;;1.60;1.50;;;4.30;96.60;;;;;;4967506;28;20193;-77
2020/12/15 06:17:55;;;;;;;1.83;1.73;;;4.30;96.40;;;;;;4944749;29;20270;-77
2020/12/15 06:20:21;;;;;;;2.03;1.93;;;4.30;96.20;;;;;;4949403;28;20197;-76
2020/12/15 06:22:48;;;;;;;2.20;1.90;;;4.40;96.40;;;;;;4945453;28;20202;-76
2020/12/15 06:25:28;;;;;;;2.40;2.20;;;4.40;96.30;;;;;;4939221;28;20186;-75
2020/12/15 06:28:09;;;;;;;2.43;2.33;;;4.40;96.00;;;;;;4966665;28;20173;-75
2020/12/15 06:30:40;;;;;;;1.70;1.50;;;4.50;95.80;;;;;;4961263;28;20556;-74
2020/12/15 06:33:15;;;;;;;2.13;1.77;;;4.50;95.70;;;;;;4946051;28;20191;-75
2020/12/15 06:36:00;;;;;;;2.27;2.07;;;4.50;95.70;;;;;;4947280;28;20174;-75
2020/12/15 06:38:26;;;;;;;1.47;1.47;;;4.60;95.60;;;;;;4968661;28;20183;-74
2020/12/15 06:40:51;;;;;;;2.40;2.30;;;4.60;95.70;;;;;;4964326;28;20736;-74
2020/12/15 06:43:24;;;;;;;1.90;1.80;;;4.70;95.70;;;;;;4962917;28;21034;-75
2020/12/15 06:45:50;;;;;;;1.80;1.70;;;4.70;95.30;;;;;;4967383;28;20190;-75
2020/12/15 06:48:23;;;;;;;2.37;2.27;;;4.70;95.30;;;;;;4951282;28;20179;-75
2020/12/15 06:50:49;;;;;;;2.57;2.23;;;4.80;95.10;;;;;;4946043;29;20278;-75
2020/12/15 06:53:19;;;;;;;2.57;2.40;;;4.80;95.00;;;;;;4967542;28;20182;-75
2020/12/15 06:55:45;;;;;;;1.90;1.80;;;4.80;95.10;;;;;;4964314;28;20186;-74
2020/12/15 06:58:18;;;;;;;2.93;2.73;;;4.90;95.20;;;;;;4968474;28;20201;-75
2020/12/15 07:00:44;;;;;;;2.30;2.10;;;5.00;95.20;;;;;;4951417;28;20186;-73
2020/12/15 07:03:09;;;;;;;3.37;2.70;;;5.00;95.40;;;;;;4967261;28;20217;-74
2020/12/15 07:05:36;;;;;;;4.07;3.07;;;5.10;95.40;;;;;;4961946;28;20190;-74
2020/12/15 07:08:07;;;;;;;3.70;3.03;;;5.20;95.10;;;;;;4951878;28;20663;-73
2020/12/15 07:10:34;;;;;;;3.93;3.53;;;5.20;95.40;;;;;;4960579;28;20186;-75
2020/12/15 07:13:00;;;;;;;5.80;4.83;;;5.30;95.50;;;;;;4940159;29;20274;-77
2020/12/15 07:15:28;;;;;;;6.17;4.90;;;5.40;95.20;;;;;;4966242;28;20228;-73
2020/12/15 07:17:54;;;;;;;5.40;4.83;;;5.50;95.00;;;;;;4967940;28;20244;-74
2020/12/15 07:20:21;;;;;;;7.53;6.27;;;5.50;94.70;;;;;;4952474;28;20666;-75
2020/12/15 07:22:47;;;;;;;9.90;5.77;;;5.60;94.40;;;;;;4967651;28;20221;-73
2020/12/15 07:25:15;;;;;;;7.00;4.53;;;5.70;94.50;;;;;;4967308;28;20558;-77
2020/12/15 07:27:42;;;;;;;5.27;3.50;;;5.70;94.70;;;;;;4951997;28;20189;-72
2020/12/15 07:30:16;;;;;;;5.40;3.73;;;5.80;94.50;;;;;;4966538;28;20186;-72
2020/12/15 07:32:43;;;;;;;3.53;3.23;;;5.90;94.50;;;;;;4968399;28;20570;-72
2020/12/15 07:35:18;;;;;;;4.73;2.90;;;6.00;94.00;;;;;;4968532;28;20194;-74
2020/12/15 07:37:45;;;;;;;5.80;3.10;;;6.00;93.70;;;;;;4967737;28;20173;-74
2020/12/15 07:40:13;;;;;;;4.07;3.77;;;6.10;93.80;;;;;;4968659;28;20183;-73
2020/12/15 07:42:39;;;;;;;3.97;3.30;;;6.10;93.80;;;;;;4966783;28;20300;-78
2020/12/15 07:45:10;;;;;;;4.30;3.37;;;6.20;93.90;;;;;;4965884;28;20592;-74
2020/12/15 07:47:43;;;;;;;4.40;3.07;;;6.20;93.80;;;;;;4969711;28;20190;-75
2020/12/15 07:50:10;;;;;;;3.83;3.43;;;6.30;93.80;;;;;;4966111;28;20182;-72
2020/12/15 07:52:38;;;;;;;3.03;2.67;;;6.40;93.80;;;;;;4949958;28;20186;-73
2020/12/15 07:55:13;;;;;;;3.23;3.03;;;6.40;93.00;;;;;;4950599;28;20725;-74
2020/12/15 07:57:41;;;;;;;3.77;3.00;;;6.50;92.90;;;;;;4964137;28;20286;-72
2020/12/15 08:00:10;;;;;;;4.27;3.03;;;6.60;93.20;;;;;;4968308;28;20182;-72
2020/12/15 08:02:36;;;;;;;3.50;3.10;;;6.60;93.30;;;;;;4968683;28;20594;-73
2020/12/15 08:05:06;;;;;;;2.90;2.60;;;6.70;92.90;;;;;;4947135;28;20187;-74
2020/12/15 08:07:47;;;;;;;6.93;2.60;;;6.80;92.90;;;;;;4949419;28;20643;-72
2020/12/15 08:10:23;;;;;;;2.67;2.57;;;6.90;93.00;;;;;;4942229;28;20190;-71
2020/12/15 08:12:50;;;;;;;4.20;3.40;;;6.90;92.70;;;;;;4963248;28;20178;-72
2020/12/15 08:15:16;;;;;;;4.20;3.73;;;7.00;92.60;;;;;;4965156;28;20273;-73
2020/12/15 08:17:45;;;;;;;3.90;3.50;;;7.10;92.70;;;;;;4964606;28;20700;-73
2020/12/15 08:20:11;;;;;;;4.13;3.50;;;7.20;92.30;;;;;;4966130;28;20222;-74
2020/12/15 08:22:42;;;;;;;2.97;2.73;;;7.30;91.30;;;;;;4967600;28;20206;-74
2020/12/15 08:25:10;;;;;;;3.33;2.93;;;7.30;90.90;;;;;;4966227;28;20726;-73
2020/12/15 08:27:36;;;;;;;3.33;3.03;;;7.30;89.10;;;;;;4967035;28;20174;-73
2020/12/15 08:30:16;;;;;;;3.37;2.93;;;7.30;89.30;;;;;;4965554;28;20198;-74
2020/12/15 08:32:50;;;;;;;3.00;2.80;;;7.30;89.80;;;;;;4960352;28;20237;-73
2020/12/15 08:35:23;;;;;;;4.33;3.37;;;7.40;89.70;;;;;;4965239;28;20679;-73
2020/12/15 08:37:58;;;;;;;5.00;4.50;;;7.40;89.30;;;;;;4967499;28;20185;-74
2020/12/15 08:40:24;;;;;;;5.87;4.57;;;7.50;90.10;;;;;;4967255;28;20167;-74
2020/12/15 08:42:54;;;;;;;5.17;4.67;;;7.60;90.10;;;;;;4949852;28;20808;-73
2020/12/15 08:45:26;;;;;;;5.90;5.10;;;7.60;90.10;;;;;;4966744;28;20197;-73
2020/12/15 08:47:52;;;;;;;11.53;6.20;;;7.70;90.00;;;;;;4965021;28;20179;-73
2020/12/15 08:50:19;;;;;;;8.33;5.33;;;7.80;89.70;;;;;;4963562;28;20573;-73
2020/12/15 08:52:46;;;;;;;8.40;5.03;;;7.90;89.90;;;;;;4966921;28;20564;-73
2020/12/15 08:55:11;;;;;;;8.77;5.00;;;7.90;89.60;;;;;;4966628;28;20187;-73
2020/12/15 08:57:37;;;;;;;9.33;5.73;;;8.00;89.90;;;;;;4948453;28;20202;-73
2020/12/15 09:00:14;;;;;;;10.03;5.93;;;8.10;89.70;;;;;;4966351;28;20201;-73
2020/12/15 09:02:41;;;;;;;5.93;4.83;;;8.20;88.50;;;;;;4966839;28;20220;-73
2020/12/15 09:05:11;;;;;;;6.87;5.80;;;8.30;88.60;;;;;;4949297;28;20186;-73
2020/12/15 09:07:38;;;;;;;6.83;5.70;;;8.40;88.40;;;;;;4959495;28;20723;-73
2020/12/15 09:10:17;;;;;;;10.57;6.93;;;8.60;87.90;;;;;;4947160;28;20221;-73
2020/12/15 09:12:47;;;;;;;8.70;5.80;;;8.80;86.90;;;;;;4955007;28;20186;-76
2020/12/15 09:15:14;;;;;;;7.67;6.03;;;9.20;86.40;;;;;;4956760;28;20182;-73
2020/12/15 09:17:40;;;;;;;12.43;5.72;;;9.80;85.80;;;;;;4948804;28;20197;-73
2020/12/15 09:20:08;;;;;;;7.90;5.83;;;10.40;83.90;;;;;;4945329;28;20253;-73
2020/12/15 09:22:36;;;;;;;9.40;6.38;;;11.20;82.10;;;;;;4965694;28;20234;-73
2020/12/15 09:25:23;;;;;;;5.88;5.35;;;12.10;80.60;;;;;;4947057;28;20204;-73
2020/12/15 09:27:49;;;;;;;5.55;4.80;;;12.80;76.90;;;;;;4961513;28;20194;-73
2020/12/15 09:30:18;;;;;;;5.25;4.75;;;13.10;75.50;;;;;;4964447;28;20182;-73
2020/12/15 09:32:44;;;;;;;8.85;6.40;;;13.40;75.60;;;;;;4947907;28;20201;-74
2020/12/15 09:35:11;;;;;;;8.50;6.45;;;13.70;75.20;;;;;;4964071;28;20193;-74
2020/12/15 09:37:41;;;;;;;5.07;4.68;;;13.80;73.20;;;;;;4965264;28;20193;-74
2020/12/15 09:40:08;;;;;;;4.47;4.10;;;13.80;73.30;;;;;;4963646;28;20256;-74
2020/12/15 09:42:38;;;;;;;5.15;3.92;;;13.40;71.50;;;;;;4964829;28;20212;-73
2020/12/15 09:45:05;;;;;;;4.40;4.07;;;12.60;72.40;;;;;;4965973;28;20175;-73
2020/12/15 09:47:32;;;;;;;8.20;5.60;;;12.00;74.60;;;;;;4965087;28;20659;-73
2020/12/15 09:49:57;;;;;;;9.50;6.45;;;11.70;77.40;;;;;;4963109;28;20206;-74
2020/12/15 09:52:25;;;;;;;8.60;6.60;;;11.60;77.30;;;;;;4959276;28;20218;-74
2020/12/15 09:54:51;;;;;;;7.22;6.32;;;11.50;78.20;;;;;;4959461;28;20228;-73
2020/12/15 09:57:16;;;;;;;7.15;5.68;;;11.40;77.80;;;;;;4948538;28;20218;-74
2020/12/15 09:59:42;;;;;;;6.07;5.53;;;11.20;77.70;;;;;;4957050;28;20236;-73
2020/12/15 10:02:08;;;;;;;8.95;5.95;;;11.00;77.20;;;;;;4965957;28;20229;-73
2020/12/15 10:04:33;;;;;;;7.07;6.25;;;10.70;78.00;;;;;;4966186;28;20582;-74
2020/12/15 10:06:59;;;;;;;5.72;5.18;;;10.50;78.20;;;;;;4966111;28;20186;-74
2020/12/15 10:09:25;;;;;;;8.43;6.20;;;10.30;79.40;;;;;;4942562;28;20301;-75
2020/12/15 10:11:50;;;;;;;7.03;6.05;;;10.20;79.30;;;;;;4948208;28;20187;-73
2020/12/15 10:14:17;;;;;;;8.52;6.03;;;10.20;79.50;;;;;;4966021;28;20730;-73
2020/12/15 10:16:43;;;;;;;8.43;6.25;;;10.20;80.60;;;;;;4965393;28;20671;-74
2020/12/15 10:19:09;;;;;;;5.95;5.43;;;10.30;80.40;;;;;;4952767;28;20206;-73
2020/12/15 10:21:36;;;;;;;7.00;6.28;;;10.40;80.40;;;;;;4964714;28;20670;-73
2020/12/15 10:24:02;;;;;;;8.30;5.35;;;10.80;80.10;;;;;;4948549;28;20753;-73
2020/12/15 10:26:28;;;;;;;7.32;5.10;;;11.40;78.80;;;;;;4948704;28;20225;-74
2020/12/15 10:28:53;;;;;;;9.00;5.28;;;12.40;77.70;;;;;;4966356;28;20183;-74
2020/12/15 10:31:20;;;;;;;6.80;6.18;;;13.40;75.80;;;;;;4965960;28;20178;-74
2020/12/15 10:33:46;;;;;;;10.02;6.75;;;14.20;73.90;;;;;;4966264;28;20708;-74
2020/12/15 10:36:13;;;;;;;8.00;6.20;;;15.00;71.90;;;;;;4965413;28;20322;-74
2020/12/15 10:38:39;;;;;;;6.47;5.82;;;15.90;69.50;;;;;;4966191;28;20186;-69
2020/12/15 10:41:05;;;;;;;6.93;6.07;;;16.00;69.50;;;;;;4955079;28;20197;-70
2020/12/15 10:43:31;;;;;;;9.15;6.57;;;15.90;69.00;;;;;;4963250;28;20224;-71
2020/12/15 10:45:56;;;;;;;5.88;5.22;;;15.70;68.60;;;;;;4961004;28;20730;-71
2020/12/15 10:48:22;;;;;;;6.13;5.60;;;15.30;69.40;;;;;;4964847;28;20182;-71
2020/12/15 10:50:48;;;;;;;6.47;5.38;;;14.90;69.60;;;;;;4960468;28;20187;-71
2020/12/15 10:53:14;;;;;;;4.57;4.25;;;14.50;70.10;;;;;;4940372;28;20289;-71
2020/12/15 10:55:40;;;;;;;6.10;5.45;;;13.90;70.30;;;;;;4959859;28;20194;-71
2020/12/15 10:58:06;;;;;;;6.60;5.50;;;13.40;71.50;;;;;;4959768;28;20191;-71
2020/12/15 11:00:32;;;;;;;5.10;4.78;;;13.20;73.00;;;;;;4959726;28;20186;-71
2020/12/15 11:02:58;;;;;;;5.57;5.15;;;13.50;72.80;;;;;;4958601;28;20269;-71
2020/12/15 11:05:24;;;;;;;5.32;4.85;;;14.00;72.60;;;;;;4947209;28;20190;-71
2020/12/15 11:07:49;;;;;;;6.55;5.82;;;14.60;71.30;;;;;;4965540;28;20185;-71
2020/12/15 11:10:15;;;;;;;5.60;5.07;;;15.10;70.00;;;;;;4943112;28;20197;-71
2020/12/15 11:12:41;;;;;;;5.55;4.97;;;15.60;67.90;;;;;;4961508;28;20190;-71
2020/12/15 11:15:07;;;;;;;7.00;5.15;;;16.10;68.90;;;;;;4961168;28;20175;-70
2020/12/15 11:17:32;;;;;;;6.72;6.00;;;16.70;69.00;;;;;;4959776;28;20729;-70
2020/12/15 11:19:58;;;;;;;6.95;6.20;;;17.40;67.30;;;;;;4947889;28;20193;-71
2020/12/15 11:22:24;;;;;;;7.30;6.68;;;18.20;66.70;;;;;;4968110;28;20629;-70
2020/12/15 11:24:50;;;;;;;6.95;6.30;;;18.90;64.80;;;;;;4967702;28;20178;-71
2020/12/15 11:27:16;;;;;;;11.07;7.18;;;19.30;64.60;;;;;;4948349;28;20230;-70
2020/12/15 11:29:42;;;;;;;8.80;6.03;;;19.40;64.30;;;;;;4959942;28;20186;-70
2020/12/15 11:32:08;;;;;;;7.63;6.78;;;19.30;61.90;;;;;;4965153;28;20237;-69
2020/12/15 11:34:33;;;;;;;7.70;6.30;;;19.40;63.40;;;;;;4965491;28;20202;-70
2020/12/15 11:36:59;;;;;;;7.10;6.40;;;19.50;64.00;;;;;;4947598;28;20220;-70
2020/12/15 11:39:25;;;;;;;6.97;6.38;;;19.50;63.90;;;;;;4968278;28;20183;-70
2020/12/15 11:41:51;;;;;;;6.78;5.90;;;19.60;63.00;;;;;;4966983;28;20269;-70
2020/12/15 11:44:20;;;;;;;7.07;6.43;;;19.60;63.70;;;;;;4954352;28;20345;-70
2020/12/15 11:46:46;;;;;;;6.75;6.15;;;19.80;63.80;;;;;;4964670;28;20281;-70
2020/12/15 11:49:12;;;;;;;11.48;6.82;;;19.90;62.50;;;;;;4968443;28;20348;-70
2020/12/15 11:51:38;;;;;;;11.02;6.97;;;19.80;62.80;;;;;;4968281;28;20183;-70
2020/12/15 11:54:04;;;;;;;8.38;6.85;;;19.50;61.80;;;;;;4962370;28;20301;-70
2020/12/15 11:56:30;;;;;;;7.18;6.47;;;19.10;62.40;;;;;;4967730;28;20196;-70
2020/12/15 11:58:55;;;;;;;7.35;6.60;;;18.70;62.40;;;;;;4968191;28;20564;-70
2020/12/15 12:01:21;;;;;;;8.48;6.65;;;18.30;65.50;;;;;;4968589;28;20190;-70
2020/12/15 12:03:47;;;;;;;9.88;6.20;;;18.20;64.60;;;;;;4950158;28;20285;-70
2020/12/15 12:06:13;;;;;;;8.15;5.72;;;18.10;62.90;;;;;;4958233;28;20210;-70
2020/12/15 12:08:39;;;;;;;6.30;5.65;;;18.20;65.60;;;;;;4951119;28;20227;-69
2020/12/15 12:11:05;;;;;;;7.57;5.97;;;18.40;64.70;;;;;;4968047;28;20248;-69
2020/12/15 12:13:31;;;;;;;6.55;5.95;;;18.80;64.20;;;;;;4968372;28;21175;-69
2020/12/15 12:15:59;;;;;;;9.27;6.95;;;19.20;61.90;;;;;;4950495;28;20224;-69
2020/12/15 12:18:25;;;;;;;8.15;6.57;;;19.50;63.20;;;;;;4968276;28;20186;-70
2020/12/15 12:20:51;;;;;;;7.97;6.45;;;19.80;62.80;;;;;;4966228;28;20190;-70
2020/12/15 12:23:17;;;;;;;6.05;5.45;;;19.90;62.90;;;;;;4967692;28;20226;-69
2020/12/15 12:25:42;;;;;;;6.60;5.97;;;20.00;61.30;;;;;;4944431;28;20227;-70
2020/12/15 12:28:08;;;;;;;7.07;6.35;;;20.00;61.60;;;;;;4950251;28;20278;-70
2020/12/15 12:30:35;;;;;;;7.00;6.25;;;20.00;61.80;;;;;;4967934;28;20245;-70
2020/12/15 12:33:01;;;;;;;6.38;5.80;;;19.70;60.90;;;;;;4949368;28;20178;-70
2020/12/15 12:35:27;;;;;;;7.30;6.60;;;19.30;61.10;;;;;;4968132;28;20209;-69
2020/12/15 12:37:52;;;;;;;7.05;6.40;;;18.80;64.20;;;;;;4967660;28;20182;-69
2020/12/15 12:40:18;;;;;;;7.88;6.50;;;18.20;63.50;;;;;;4964061;28;20225;-69
2020/12/15 12:42:45;;;;;;;7.10;5.95;;;17.80;63.80;;;;;;4949844;28;20210;-69
2020/12/15 12:45:10;;;;;;;7.38;6.47;;;17.30;63.90;;;;;;4950010;28;20201;-69
2020/12/15 12:47:36;;;;;;;9.13;6.35;;;16.80;65.30;;;;;;4950073;28;20175;-69
2020/12/15 12:50:03;;;;;;;7.45;6.13;;;16.40;65.30;;;;;;4966014;28;20285;-69
2020/12/15 12:52:29;;;;;;;8.52;6.70;;;16.00;67.40;;;;;;4966349;28;20186;-69